Skip Navigation LinksHome page > Weather > Current weather Skip Navigation Links

Current Weather

Chicago O'Hare Intl, Chicago

For information only: do not use for flight planning or navigation.
Latest weather
Observation time Thursday, July 31, 2014 5:51 AM CDT
Local time Thursday, July 31, 2014 6:27 AM CDT
Flight conditions Visual Meteorological Conditions
Winds
Wind direction West-Southwest (250°)
Wind speed 6 mph
Visibility 7 mi.
Sky condition
Ceiling unlimited
Cloud layer few clouds 4,600 ft.
Temperature 62°F
Dewpoint 56°F
Altimeter 30.02 in.Hg
Derived measurements
Relative humidity 80%
Density altitude 300 ft.
Sea-level pressure 30.01 in.Hg
Remarks
Automated weather observing station with precipitation discriminator.
METAR KORD 311051Z 25005KT 7SM FEW046 17/13 A3002 RMK AO2 SLP164 T01670133

Settings

Location code

InnerDrive.Weather 4.0.5294.0 Release CLR 4.0.30319.34014
Copyright ©2014 Inner Drive Technology. All rights reserved. Portions Copyright ©1986-2014 David Braverman.

Find weather

Site navigation


Skip Navigation Links

Place info

Page info

PayPal - The safer, easier way to pay online!

Return home.

Copyright ©2014 Inner Drive Technology. Purveyors of fine, hand-crafted computer software. Page printed 2014-07-31T11:27:37 UTC.